createdAt,value
2018-08-11T09:45:33.137Z,15.06
2018-08-11T09:48:01.950Z,15.17
2018-08-11T09:50:30.565Z,15.22
2018-08-11T09:52:59.311Z,15.28
2018-08-11T09:55:28.921Z,15.30
2018-08-11T09:57:57.601Z,15.32
2018-08-11T10:00:31.409Z,15.33
2018-08-11T10:03:00.106Z,15.36
2018-08-11T10:05:28.807Z,15.34
2018-08-11T10:07:57.599Z,15.39
2018-08-11T10:10:26.361Z,15.40
2018-08-11T10:12:55.003Z,15.43
2018-08-11T10:15:23.703Z,15.45
2018-08-11T10:17:52.337Z,15.49
2018-08-11T10:20:21.008Z,15.54
2018-08-11T10:22:49.648Z,15.57
2018-08-11T10:25:18.310Z,15.62
2018-08-11T10:27:46.948Z,15.67
2018-08-11T10:30:15.650Z,15.71
2018-08-11T10:32:44.285Z,15.78
2018-08-11T10:35:12.960Z,15.82
2018-08-11T10:37:41.650Z,15.87
2018-08-11T10:40:10.457Z,15.90
2018-08-11T10:42:39.328Z,15.94
2018-08-11T10:45:07.965Z,15.96
2018-08-11T10:47:37.098Z,16.00
2018-08-11T10:50:06.052Z,16.03
2018-08-11T10:52:34.737Z,16.05
2018-08-11T10:55:03.426Z,16.07
2018-08-11T10:57:32.062Z,16.12
2018-08-11T11:00:00.682Z,16.14
2018-08-11T11:02:29.373Z,16.19
2018-08-11T11:04:58.026Z,16.22
2018-08-11T11:07:26.648Z,16.26
2018-08-11T11:09:55.454Z,16.29
2018-08-11T11:12:24.357Z,16.32
2018-08-11T11:14:53.056Z,16.35
2018-08-11T11:17:21.756Z,16.38
2018-08-11T11:19:50.439Z,16.41
2018-08-11T11:22:19.130Z,16.42
2018-08-11T11:24:47.955Z,16.44
2018-08-11T11:27:16.689Z,16.47
2018-08-11T11:29:45.365Z,16.53
2018-08-11T11:32:14.065Z,16.59
2018-08-11T11:34:42.731Z,16.66
2018-08-11T11:37:11.402Z,16.74
2018-08-11T11:39:40.065Z,16.80
2018-08-11T11:42:08.743Z,16.84
2018-08-11T11:44:37.633Z,16.87
2018-08-11T11:47:06.348Z,16.88
2018-08-11T11:49:35.133Z,16.90
2018-08-11T11:52:04.187Z,16.94
2018-08-11T11:54:33.049Z,17.01
2018-08-11T11:57:02.549Z,17.09
2018-08-11T11:59:43.803Z,17.18
2018-08-11T12:02:12.873Z,17.23
2018-08-11T12:04:41.843Z,17.27
2018-08-11T12:07:10.983Z,17.32
2018-08-11T12:09:40.117Z,17.40
2018-08-11T12:12:08.860Z,17.49
2018-08-11T12:14:37.696Z,17.61
2018-08-11T12:17:06.638Z,17.66
2018-08-11T12:19:35.578Z,17.68
2018-08-11T12:22:04.846Z,17.66
2018-08-11T12:24:34.030Z,17.63
2018-08-11T12:27:03.948Z,17.62
2018-08-11T12:29:32.652Z,17.58
2018-08-11T12:32:01.491Z,17.57
2018-08-11T12:34:30.309Z,17.55
2018-08-11T12:36:59.223Z,17.54
2018-08-11T12:39:28.006Z,17.52
2018-08-11T12:41:56.994Z,17.50
2018-08-11T12:44:25.866Z,17.49
2018-08-11T12:46:54.633Z,17.49
2018-08-11T12:49:23.632Z,17.48
2018-08-11T12:51:52.590Z,17.51
2018-08-11T12:54:21.401Z,17.52
2018-08-11T12:56:50.501Z,17.55
2018-08-11T12:59:19.394Z,17.57
2018-08-11T13:01:48.314Z,17.61
2018-08-11T13:04:17.040Z,17.59
2018-08-11T13:06:45.956Z,17.59
2018-08-11T13:09:14.801Z,17.52
2018-08-11T13:11:43.526Z,17.52
2018-08-11T13:14:12.367Z,17.46
2018-08-11T13:16:41.116Z,17.42
2018-08-11T13:19:10.032Z,17.39
2018-08-11T13:21:39.097Z,17.37
2018-08-11T13:24:07.869Z,17.36
2018-08-11T13:26:36.882Z,17.33
2018-08-11T13:29:05.906Z,17.32
2018-08-11T13:31:34.831Z,17.31
2018-08-11T13:34:03.601Z,17.28
2018-08-11T13:36:32.374Z,17.25
2018-08-11T13:39:01.364Z,17.28
2018-08-11T13:41:46.506Z,17.26
2018-08-11T13:44:16.296Z,17.26
2018-08-11T13:46:45.122Z,17.30
2018-08-11T13:49:13.882Z,17.33
2018-08-11T13:51:42.628Z,17.35
2018-08-11T13:54:11.439Z,17.38
2018-08-11T13:56:40.277Z,17.43
2018-08-11T13:59:09.025Z,17.47
2018-08-11T14:01:38.502Z,17.51
2018-08-11T14:04:08.144Z,17.51
2018-08-11T14:06:36.871Z,17.50
2018-08-11T14:09:07.663Z,17.45
2018-08-11T14:11:37.023Z,17.49
2018-08-11T14:14:05.758Z,17.48
2018-08-11T14:16:34.598Z,17.47
2018-08-11T14:19:03.403Z,17.49
2018-08-11T14:21:32.192Z,17.53
2018-08-11T14:24:00.912Z,17.56
2018-08-11T14:26:29.840Z,17.59
2018-08-11T14:28:58.683Z,17.64
2018-08-11T14:31:27.446Z,17.70
2018-08-11T14:33:56.277Z,17.76
2018-08-11T14:36:25.078Z,17.79
2018-08-11T14:38:53.711Z,17.83
2018-08-11T14:41:22.520Z,17.84
2018-08-11T14:43:51.266Z,17.84
2018-08-11T14:46:19.966Z,17.84
2018-08-11T14:48:48.734Z,17.82
2018-08-11T14:51:17.483Z,17.85
2018-08-11T14:53:46.376Z,17.85
2018-08-11T14:56:15.195Z,17.89
2018-08-11T14:58:43.953Z,17.90
2018-08-11T15:01:12.714Z,17.95
2018-08-11T15:03:41.542Z,17.97
2018-08-11T15:06:10.303Z,17.99
2018-08-11T15:08:39.118Z,18.02
2018-08-11T15:11:07.935Z,18.04
2018-08-11T15:13:37.004Z,18.08
2018-08-11T15:16:05.845Z,18.17
2018-08-11T15:18:34.629Z,18.22
2018-08-11T15:21:03.226Z,18.30
2018-08-11T15:26:13.311Z,18.38
2018-08-11T15:28:42.010Z,18.35
2018-08-11T15:31:10.663Z,18.35
2018-08-11T15:33:39.332Z,18.38
2018-08-11T15:36:08.092Z,18.47
2018-08-11T15:38:36.788Z,18.60
2018-08-11T15:41:05.715Z,18.66
2018-08-11T15:43:34.388Z,18.66
2018-08-11T15:46:03.062Z,18.67
2018-08-11T15:48:31.958Z,18.65
2018-08-11T15:51:00.640Z,18.62
2018-08-11T15:53:29.282Z,18.58
2018-08-11T15:55:57.945Z,18.59
2018-08-11T15:58:26.582Z,18.59
2018-08-11T16:00:55.350Z,18.60
2018-08-11T16:03:24.002Z,18.59
2018-08-11T16:05:52.720Z,18.57
2018-08-11T16:08:21.360Z,18.56
2018-08-11T16:10:50.081Z,18.53
2018-08-11T16:13:18.751Z,18.60
2018-08-11T16:15:47.411Z,18.64
2018-08-11T16:18:16.075Z,18.68
2018-08-11T16:20:44.742Z,18.62
2018-08-11T16:23:13.417Z,18.63
2018-08-11T16:25:42.076Z,18.60
2018-08-11T16:28:10.748Z,18.56
2018-08-11T16:30:39.388Z,18.51
2018-08-11T16:33:08.175Z,18.50
2018-08-11T16:35:36.879Z,18.48
2018-08-11T16:38:05.884Z,18.47
2018-08-11T16:40:34.571Z,18.48
2018-08-11T16:43:03.283Z,18.48
2018-08-11T16:45:31.947Z,18.47
2018-08-11T16:48:00.744Z,18.48
2018-08-11T16:50:29.344Z,18.45
2018-08-11T16:52:58.041Z,18.43
2018-08-11T16:55:26.703Z,18.37
2018-08-11T16:57:55.430Z,18.36
2018-08-11T17:00:24.719Z,18.32
2018-08-11T17:02:53.384Z,18.28
2018-08-11T17:05:22.039Z,18.26
2018-08-11T17:07:50.731Z,18.22
2018-08-11T17:10:19.380Z,18.21
2018-08-11T17:12:48.042Z,18.17
2018-08-11T17:15:17.292Z,18.17
2018-08-11T17:17:45.980Z,18.19
2018-08-11T17:20:14.627Z,18.20
2018-08-11T17:22:43.259Z,18.20
2018-08-11T17:25:11.944Z,18.20
2018-08-11T17:27:40.610Z,18.17
2018-08-11T17:30:09.308Z,18.17
2018-08-11T17:32:37.994Z,18.15
2018-08-11T17:35:06.700Z,18.11
2018-08-11T17:37:35.356Z,18.08
2018-08-11T17:40:04.819Z,18.03
2018-08-11T17:42:33.476Z,17.99
2018-08-11T17:45:02.167Z,17.95
2018-08-11T17:47:31.048Z,17.90
2018-08-11T17:49:59.757Z,17.90
2018-08-11T17:52:28.428Z,17.88
2018-08-11T17:54:57.122Z,17.84
2018-08-11T17:57:25.744Z,17.87
2018-08-11T17:59:54.382Z,17.87
2018-08-11T18:02:23.063Z,17.81
2018-08-11T18:04:51.739Z,17.82
2018-08-11T18:07:20.476Z,17.77
2018-08-11T18:09:49.119Z,17.73
2018-08-11T18:12:18.367Z,17.69
2018-08-11T18:14:47.032Z,17.67
2018-08-11T18:17:15.701Z,17.63
2018-08-11T18:19:44.386Z,17.56
2018-08-11T18:22:13.059Z,17.52
2018-08-11T18:24:41.751Z,17.52
2018-08-11T18:27:10.428Z,17.47
2018-08-11T18:29:39.181Z,17.43
2018-08-11T18:32:07.882Z,17.39
2018-08-11T18:34:36.561Z,17.41
2018-08-11T18:37:05.210Z,17.37
2018-08-11T18:39:33.856Z,17.33
2018-08-11T18:42:02.555Z,17.30
2018-08-11T18:44:31.213Z,17.27
2018-08-11T18:46:59.877Z,17.24
2018-08-11T18:49:28.528Z,17.20
2018-08-11T18:51:57.163Z,17.18
2018-08-11T18:54:25.810Z,17.16
2018-08-11T18:56:54.488Z,17.12
2018-08-11T18:59:23.150Z,17.11
2018-08-11T19:01:51.824Z,17.10
2018-08-11T19:04:20.506Z,17.08
2018-08-11T19:06:49.235Z,17.08
2018-08-11T19:09:17.977Z,17.05
2018-08-11T19:11:46.692Z,17.06
2018-08-11T19:14:15.303Z,17.02
2018-08-11T19:16:43.983Z,17.05
2018-08-11T19:19:12.720Z,17.05
2018-08-11T19:21:41.474Z,17.04
2018-08-11T19:24:10.238Z,17.04
2018-08-11T19:26:38.920Z,17.03
2018-08-11T19:29:07.627Z,17.03
2018-08-11T19:31:36.348Z,17.00
2018-08-11T19:34:05.089Z,17.04
2018-08-11T19:36:33.775Z,17.02
2018-08-11T19:39:02.498Z,17.03
2018-08-11T19:41:31.209Z,17.01
2018-08-11T19:43:59.885Z,17.02
2018-08-11T19:46:28.681Z,17.02
2018-08-11T19:48:57.275Z,17.02
2018-08-11T19:51:25.999Z,17.01
2018-08-11T19:53:54.732Z,17.02
2018-08-11T19:56:23.424Z,17.02
2018-08-11T19:58:52.163Z,17.03
2018-08-11T20:01:20.907Z,17.04
2018-08-11T20:03:49.577Z,17.05
2018-08-11T20:06:18.230Z,17.05
2018-08-11T20:08:46.941Z,17.05
2018-08-11T20:11:16.588Z,17.05
2018-08-11T20:13:45.323Z,17.05
2018-08-11T20:16:13.979Z,17.05
2018-08-11T20:18:42.671Z,17.05
2018-08-11T20:21:11.323Z,17.05
2018-08-11T20:23:39.964Z,17.06
2018-08-11T20:26:08.720Z,17.05
2018-08-11T20:28:37.429Z,17.06
2018-08-11T20:31:06.204Z,17.05
2018-08-11T20:33:35.019Z,17.06
2018-08-11T20:36:03.715Z,17.08
2018-08-11T20:38:32.399Z,17.07
2018-08-11T20:41:01.228Z,17.08
2018-08-11T20:43:29.977Z,17.08
2018-08-11T20:45:58.680Z,17.09
2018-08-11T20:48:27.419Z,17.09
2018-08-11T20:50:56.110Z,17.09
2018-08-11T20:53:24.824Z,17.09
2018-08-11T20:55:53.504Z,17.09
2018-08-11T20:58:22.188Z,17.09
2018-08-11T21:00:50.899Z,17.10
2018-08-11T21:03:19.641Z,17.09
2018-08-11T21:05:48.370Z,17.11
2018-08-11T21:08:17.084Z,17.11
2018-08-11T21:10:45.792Z,17.10
2018-08-11T21:13:14.504Z,17.11
2018-08-11T21:15:43.267Z,17.12
2018-08-11T21:18:11.960Z,17.11
2018-08-11T21:20:40.694Z,17.12
2018-08-11T21:23:09.357Z,17.14
2018-08-11T21:25:38.069Z,17.12
2018-08-11T21:28:06.840Z,17.14
2018-08-11T21:30:35.555Z,17.15
2018-08-11T21:33:04.302Z,17.15
2018-08-11T21:35:33.047Z,17.16
2018-08-11T21:38:01.738Z,17.16
2018-08-11T21:40:30.530Z,17.18
2018-08-11T21:42:59.265Z,17.18
2018-08-11T21:45:27.947Z,17.17
2018-08-11T21:47:56.623Z,17.19
2018-08-11T21:50:25.291Z,17.18
2018-08-11T21:52:54.014Z,17.19
2018-08-11T21:55:22.680Z,17.20
2018-08-11T21:57:51.372Z,17.20
2018-08-11T22:00:29.577Z,17.17
2018-08-11T22:02:58.877Z,17.20
2018-08-11T22:05:28.031Z,17.22
2018-08-11T22:07:57.617Z,17.21
2018-08-11T22:10:26.608Z,17.22
2018-08-11T22:12:55.313Z,17.23
2018-08-11T22:15:24.191Z,17.24
2018-08-11T22:17:53.849Z,17.25
2018-08-11T22:20:22.592Z,17.22
2018-08-11T22:22:51.279Z,17.24
2018-08-11T22:25:20.064Z,17.25
2018-08-11T22:27:48.783Z,17.25
2018-08-11T22:30:17.503Z,17.26
2018-08-11T22:32:46.260Z,17.26
2018-08-11T22:35:14.923Z,17.26
2018-08-11T22:37:43.603Z,17.25
2018-08-11T22:40:12.330Z,17.25
2018-08-11T22:42:41.047Z,17.25
2018-08-11T22:45:11.296Z,17.25
2018-08-11T22:47:40.166Z,17.25
2018-08-11T22:50:12.353Z,17.25
2018-08-11T22:52:41.060Z,17.26
2018-08-11T22:55:09.865Z,17.26
2018-08-11T22:57:38.660Z,17.26
2018-08-11T23:00:11.543Z,17.27
2018-08-11T23:02:40.260Z,17.28
2018-08-11T23:05:09.129Z,17.28
2018-08-11T23:07:38.059Z,17.28
2018-08-11T23:10:08.341Z,17.30
2018-08-11T23:12:37.043Z,17.30
2018-08-11T23:15:07.040Z,17.31
2018-08-11T23:17:35.674Z,17.32
2018-08-11T23:20:04.498Z,17.30
2018-08-11T23:22:33.200Z,17.33
2018-08-11T23:25:01.900Z,17.30
2018-08-11T23:27:30.608Z,17.32
2018-08-11T23:29:59.295Z,17.33
2018-08-11T23:32:27.991Z,17.33
2018-08-11T23:34:56.853Z,17.33
2018-08-11T23:37:25.633Z,17.34
2018-08-11T23:39:54.343Z,17.34
2018-08-11T23:42:23.083Z,17.35
2018-08-11T23:44:51.781Z,17.35
2018-08-11T23:47:20.449Z,17.33
2018-08-11T23:49:49.140Z,17.33
2018-08-11T23:52:17.820Z,17.36
2018-08-11T23:54:46.492Z,17.36
2018-08-11T23:57:15.232Z,17.36
2018-08-11T23:59:43.895Z,17.35
